createdAt,value
2019-04-10T00:02:27.828Z,97.00
2019-04-10T00:04:55.835Z,97.00
2019-04-10T00:07:22.332Z,97.10
2019-04-10T00:09:49.553Z,97.30
2019-04-10T00:12:16.072Z,97.10
2019-04-10T00:14:42.921Z,97.20
2019-04-10T00:17:11.502Z,97.50
2019-04-10T00:19:37.982Z,97.60
2019-04-10T00:22:04.302Z,97.90
2019-04-10T00:24:30.624Z,97.70
2019-04-10T00:26:56.971Z,97.60
2019-04-10T00:29:23.243Z,97.70
2019-04-10T00:31:50.786Z,97.40
2019-04-10T00:34:17.763Z,97.10
2019-04-10T00:36:44.071Z,97.20
2019-04-10T00:39:10.569Z,97.40
2019-04-10T00:41:36.892Z,97.50
2019-04-10T00:44:03.613Z,97.50
2019-04-10T00:46:30.424Z,97.50
2019-04-10T00:48:56.709Z,97.30
2019-04-10T00:51:23.514Z,97.70
2019-04-10T00:53:49.901Z,98.10
2019-04-10T00:56:16.593Z,98.10
2019-04-10T00:58:43.702Z,97.90
2019-04-10T01:01:10.311Z,97.90
2019-04-10T01:03:43.477Z,98.00
2019-04-10T01:06:11.507Z,97.80
2019-04-10T01:08:37.803Z,97.80
2019-04-10T01:11:04.668Z,97.80
2019-04-10T01:13:31.084Z,97.70
2019-04-10T01:15:57.358Z,97.40
2019-04-10T01:18:23.642Z,97.80
2019-04-10T01:20:50.166Z,98.00
2019-04-10T01:23:17.020Z,98.00
2019-04-10T01:25:43.249Z,97.90
2019-04-10T01:28:09.676Z,98.10
2019-04-10T01:30:36.074Z,98.10
2019-04-10T01:33:02.340Z,97.90
2019-04-10T01:35:29.758Z,97.90
2019-04-10T01:38:00.822Z,97.90
2019-04-10T01:40:24.304Z,98.00
2019-04-10T01:43:02.431Z,98.30
2019-04-10T01:45:21.886Z,98.30
2019-04-10T01:47:48.280Z,98.30
2019-04-10T01:50:16.599Z,98.10
2019-04-10T01:52:42.916Z,98.00
2019-04-10T01:55:20.313Z,98.00
2019-04-10T01:57:38.601Z,98.20
2019-04-10T02:00:06.669Z,98.20
2019-04-10T02:02:35.125Z,98.30
2019-04-10T02:05:01.518Z,98.40
2019-04-10T02:07:27.748Z,98.50
2019-04-10T02:09:54.330Z,98.70
2019-04-10T02:12:20.773Z,98.90
2019-04-10T02:14:47.041Z,98.90
2019-04-10T02:17:13.417Z,99.10
2019-04-10T02:19:40.576Z,99.10
2019-04-10T02:22:06.958Z,99.00
2019-04-10T02:24:33.372Z,99.00
2019-04-10T02:27:00.250Z,99.10
2019-04-10T02:29:26.546Z,99.60
2019-04-10T02:31:54.908Z,99.20
2019-04-10T02:34:21.335Z,99.30
2019-04-10T02:36:48.902Z,99.20
2019-04-10T02:39:25.611Z,99.00
2019-04-10T02:41:43.997Z,98.90
2019-04-10T02:44:12.027Z,99.20
2019-04-10T02:46:38.868Z,99.20
2019-04-10T02:49:07.875Z,99.10
2019-04-10T02:51:35.108Z,98.90
2019-04-10T02:54:02.571Z,99.20
2019-04-10T02:56:30.573Z,99.10
2019-04-10T02:58:58.658Z,99.20
2019-04-10T03:01:25.249Z,99.10
2019-04-10T03:03:52.651Z,99.20
2019-04-10T03:06:20.666Z,99.30
2019-04-10T03:09:05.990Z,99.70
2019-04-10T03:11:16.848Z,99.50
2019-04-10T03:13:45.034Z,99.90
2019-04-10T03:16:11.867Z,99.40
2019-04-10T03:18:39.106Z,99.70
2019-04-10T03:21:05.523Z,99.70
2019-04-10T03:23:31.978Z,99.60
2019-04-10T03:25:59.385Z,99.60
2019-04-10T03:28:25.875Z,99.50
2019-04-10T03:30:53.867Z,99.90
2019-04-10T03:33:26.695Z,99.80
2019-04-10T03:35:52.120Z,99.70
2019-04-10T03:38:18.518Z,99.90
2019-04-10T03:40:45.665Z,99.90
2019-04-10T03:43:12.159Z,99.90
2019-04-10T03:45:38.929Z,99.90
2019-04-10T03:48:06.305Z,99.90
2019-04-10T03:50:32.668Z,99.90
2019-04-10T03:53:00.188Z,99.90
2019-04-10T03:55:27.096Z,99.90
2019-04-10T03:57:53.560Z,99.90
2019-04-10T04:00:20.998Z,99.90
2019-04-10T04:02:48.316Z,99.90
2019-04-10T04:05:14.820Z,99.90
2019-04-10T04:07:41.123Z,99.90
2019-04-10T04:10:09.337Z,99.90
2019-04-10T04:12:35.727Z,99.90
2019-04-10T04:15:03.783Z,99.90
2019-04-10T04:17:30.428Z,99.90
2019-04-10T04:19:56.880Z,99.90
2019-04-10T04:22:23.175Z,99.90
2019-04-10T04:24:50.315Z,99.90
2019-04-10T04:27:17.508Z,99.90
2019-04-10T04:29:45.403Z,99.90
2019-04-10T04:32:11.848Z,99.90
2019-04-10T04:34:38.851Z,99.90
2019-04-10T04:37:05.459Z,99.90
2019-04-10T04:39:32.931Z,99.90
2019-04-10T04:41:59.313Z,99.90
2019-04-10T04:44:25.721Z,99.90
2019-04-10T04:46:52.717Z,99.90
2019-04-10T04:49:19.285Z,99.90
2019-04-10T04:51:46.735Z,99.90
2019-04-10T04:54:13.029Z,99.90
2019-04-10T04:56:40.028Z,99.90
2019-04-10T04:59:06.639Z,99.90
2019-04-10T05:01:32.999Z,99.90
2019-04-10T05:04:00.361Z,99.90
2019-04-10T05:06:26.789Z,99.90
2019-04-10T05:08:53.138Z,99.90
2019-04-10T05:11:20.431Z,99.90
2019-04-10T05:13:47.168Z,99.90
2019-04-10T05:16:14.205Z,99.90
2019-04-10T05:18:40.742Z,99.90
2019-04-10T05:21:10.593Z,99.90
2019-04-10T05:23:36.906Z,99.90
2019-04-10T05:26:03.562Z,99.90
2019-04-10T05:28:31.062Z,99.90
2019-04-10T05:30:57.414Z,99.90
2019-04-10T05:33:28.864Z,99.90
2019-04-10T05:35:54.976Z,99.90
2019-04-10T05:38:21.364Z,99.90
2019-04-10T05:40:48.498Z,99.90
2019-04-10T05:43:14.938Z,99.90
2019-04-10T05:45:42.237Z,99.90
2019-04-10T05:48:08.848Z,99.90
2019-04-10T05:50:35.706Z,99.90
2019-04-10T05:53:02.314Z,99.90
2019-04-10T05:55:28.869Z,99.90
2019-04-10T05:57:55.417Z,99.90
2019-04-10T06:00:22.985Z,99.90
2019-04-10T06:02:50.279Z,99.90
2019-04-10T06:05:16.710Z,99.90
2019-04-10T06:07:43.539Z,99.90
2019-04-10T06:10:10.830Z,99.90
2019-04-10T06:12:38.263Z,99.90
2019-04-10T06:15:06.460Z,99.90
2019-04-10T06:17:32.779Z,99.90
2019-04-10T06:19:59.091Z,99.90
2019-04-10T06:22:26.406Z,99.90
2019-04-10T06:24:52.861Z,99.90
2019-04-10T06:27:19.132Z,99.90
2019-04-10T06:29:46.282Z,99.90
2019-04-10T06:32:13.536Z,99.90
2019-04-10T06:34:40.836Z,99.90
2019-04-10T06:37:08.094Z,99.90
2019-04-10T06:39:35.227Z,99.90
2019-04-10T06:42:02.554Z,99.90
2019-04-10T06:44:30.132Z,99.90
2019-04-10T06:46:57.034Z,99.90
2019-04-10T06:49:23.397Z,99.90
2019-04-10T06:51:49.729Z,99.90
2019-04-10T06:54:16.450Z,99.90
2019-04-10T06:56:43.105Z,99.90
2019-04-10T06:59:09.450Z,99.90
2019-04-10T07:01:45.585Z,99.90
2019-04-10T07:04:07.619Z,99.90
2019-04-10T07:06:47.392Z,99.90
2019-04-10T07:09:03.288Z,99.90
2019-04-10T07:11:31.365Z,99.90
2019-04-10T07:13:58.483Z,99.90
2019-04-10T07:16:29.514Z,99.90
2019-04-10T07:18:54.737Z,99.50
2019-04-10T07:21:22.190Z,98.80
2019-04-10T07:23:49.010Z,99.30
2019-04-10T07:26:22.691Z,98.80
2019-04-10T07:28:45.721Z,98.10
2019-04-10T07:31:13.044Z,96.50
2019-04-10T07:33:40.485Z,96.80
2019-04-10T07:36:09.617Z,96.20
2019-04-10T07:38:39.321Z,96.40
2019-04-10T07:41:39.756Z,95.70
2019-04-10T07:47:53.953Z,95.30
2019-04-10T07:51:21.062Z,94.20
2019-04-10T07:53:47.663Z,93.90
2019-04-10T07:56:18.976Z,93.90
2019-04-10T07:58:46.003Z,94.00
2019-04-10T08:01:14.665Z,92.40
2019-04-10T08:03:43.858Z,91.90
2019-04-10T08:06:15.424Z,92.40
2019-04-10T08:08:42.636Z,93.20
2019-04-10T08:11:09.217Z,92.70
2019-04-10T08:13:36.405Z,91.90
2019-04-10T08:16:02.985Z,91.80
2019-04-10T08:18:29.624Z,92.10
2019-04-10T08:20:57.261Z,91.60
2019-04-10T08:23:24.027Z,90.80
2019-04-10T08:25:51.570Z,91.30
2019-04-10T08:28:18.031Z,91.60
2019-04-10T08:30:45.025Z,91.50
2019-04-10T08:33:11.967Z,91.70
2019-04-10T08:35:39.879Z,89.40
2019-04-10T08:38:06.245Z,90.50
2019-04-10T08:40:32.838Z,88.00
2019-04-10T08:42:59.899Z,90.00
2019-04-10T08:45:38.572Z,90.00
2019-04-10T08:47:54.721Z,88.20
2019-04-10T08:50:21.844Z,86.50
2019-04-10T08:52:48.705Z,87.60
2019-04-10T08:55:15.645Z,87.90
2019-04-10T08:57:42.164Z,86.00
2019-04-10T09:00:10.074Z,80.80
2019-04-10T09:02:36.576Z,77.70
2019-04-10T09:05:05.748Z,78.30
2019-04-10T09:07:32.547Z,78.30
2019-04-10T09:09:58.934Z,77.10
2019-04-10T09:12:26.048Z,77.20
2019-04-10T09:14:53.774Z,79.40
2019-04-10T09:17:20.329Z,76.30
2019-04-10T09:19:46.572Z,78.20
2019-04-10T09:22:12.869Z,78.10
2019-04-10T09:24:39.296Z,76.90
2019-04-10T09:27:05.788Z,77.80
2019-04-10T09:29:32.249Z,77.80
2019-04-10T09:32:00.492Z,77.60
2019-04-10T09:34:27.667Z,76.20
2019-04-10T09:36:54.096Z,75.40
2019-04-10T09:39:20.480Z,75.50
2019-04-10T09:41:46.786Z,72.10
2019-04-10T09:44:14.351Z,74.70
2019-04-10T09:46:42.840Z,76.20
2019-04-10T09:49:09.245Z,75.70
2019-04-10T09:51:36.170Z,73.60
2019-04-10T09:54:03.604Z,73.50
2019-04-10T09:56:30.301Z,69.60
2019-04-10T09:58:56.775Z,72.10
2019-04-10T10:01:23.984Z,69.80
2019-04-10T10:03:50.834Z,70.70
2019-04-10T10:06:26.862Z,67.20
2019-04-10T10:08:45.464Z,65.10
2019-04-10T10:11:11.930Z,64.00
2019-04-10T10:13:39.314Z,63.50
2019-04-10T10:16:06.386Z,65.20
2019-04-10T10:18:33.148Z,65.40
2019-04-10T10:20:59.916Z,64.10
2019-04-10T10:23:26.279Z,64.20
2019-04-10T10:25:53.291Z,65.00
2019-04-10T10:28:20.799Z,62.40
2019-04-10T10:30:47.451Z,62.10
2019-04-10T10:33:13.761Z,60.80
2019-04-10T10:35:41.021Z,61.60
2019-04-10T10:38:07.783Z,63.00
2019-04-10T10:40:35.922Z,64.20
2019-04-10T10:43:02.555Z,63.10
2019-04-10T10:45:29.119Z,61.80
2019-04-10T10:47:56.716Z,61.30
2019-04-10T10:50:29.082Z,60.70
2019-04-10T10:52:55.626Z,60.80
2019-04-10T10:55:23.217Z,59.90
2019-04-10T10:57:49.609Z,58.70
2019-04-10T11:00:17.076Z,58.30
2019-04-10T11:02:43.666Z,58.70
2019-04-10T11:05:10.757Z,57.70
2019-04-10T11:07:37.037Z,59.00
2019-04-10T11:10:06.798Z,57.30
2019-04-10T11:12:34.138Z,57.20
2019-04-10T11:15:02.235Z,56.50
2019-04-10T11:17:29.717Z,57.70
2019-04-10T11:19:57.339Z,57.20
2019-04-10T11:22:25.643Z,56.70
2019-04-10T11:24:52.284Z,56.50
2019-04-10T11:27:18.984Z,56.50
2019-04-10T11:29:45.704Z,56.40
2019-04-10T11:32:14.368Z,54.80
2019-04-10T11:34:42.624Z,55.00
2019-04-10T11:37:23.461Z,55.20
2019-04-10T11:39:42.769Z,55.50
2019-04-10T11:42:06.733Z,54.30
2019-04-10T11:44:33.630Z,53.90
2019-04-10T11:47:02.544Z,54.60
2019-04-10T11:49:31.053Z,54.80
2019-04-10T11:51:59.968Z,52.90
2019-04-10T11:54:28.173Z,54.40
2019-04-10T11:56:58.327Z,55.00
2019-04-10T11:59:23.715Z,54.00
2019-04-10T12:01:53.072Z,52.60
2019-04-10T12:04:20.047Z,53.90
2019-04-10T12:06:51.308Z,54.80
2019-04-10T12:10:01.989Z,54.40
2019-04-10T12:11:44.706Z,54.70
2019-04-10T12:14:11.349Z,53.50
2019-04-10T12:16:38.828Z,54.30
2019-04-10T12:19:05.232Z,55.00
2019-04-10T12:21:31.740Z,54.80
2019-04-10T12:23:58.941Z,54.90
2019-04-10T12:26:25.554Z,55.60
2019-04-10T12:28:51.988Z,55.80
2019-04-10T12:31:19.654Z,53.90
2019-04-10T12:33:46.567Z,53.10
2019-04-10T12:36:14.122Z,53.40
2019-04-10T12:38:43.648Z,53.60
2019-04-10T12:41:11.079Z,53.00
2019-04-10T12:43:37.600Z,52.60
2019-04-10T12:46:04.534Z,53.30
2019-04-10T12:48:30.966Z,53.10
2019-04-10T12:50:57.460Z,53.20
2019-04-10T12:53:23.786Z,52.50
2019-04-10T12:55:51.364Z,53.00
2019-04-10T12:58:19.246Z,53.90
2019-04-10T13:00:46.326Z,53.80
2019-04-10T13:03:12.705Z,54.00
2019-04-10T13:05:39.054Z,54.20
2019-04-10T13:08:15.872Z,54.00
2019-04-10T13:10:33.724Z,54.00
2019-04-10T13:13:00.055Z,54.10
2019-04-10T13:15:27.514Z,53.80
2019-04-10T13:17:58.412Z,52.50
2019-04-10T13:20:25.964Z,52.70
2019-04-10T13:22:52.643Z,51.10
2019-04-10T13:25:19.176Z,51.70
2019-04-10T13:27:45.535Z,51.50
2019-04-10T13:30:14.608Z,51.60
2019-04-10T13:32:42.314Z,51.50
2019-04-10T13:35:10.366Z,51.10
2019-04-10T13:37:39.962Z,51.30
2019-04-10T13:40:07.725Z,51.50
2019-04-10T13:42:33.967Z,51.20
2019-04-10T13:45:00.288Z,50.50
2019-04-10T13:47:29.036Z,50.60
2019-04-10T13:49:54.753Z,50.70
2019-04-10T13:52:21.231Z,51.60
2019-04-10T13:54:47.677Z,51.50
2019-04-10T13:57:14.696Z,51.30
2019-04-10T13:59:41.488Z,51.90
2019-04-10T14:02:10.968Z,51.50
2019-04-10T14:04:37.214Z,50.50
2019-04-10T14:07:04.408Z,50.40
2019-04-10T14:09:40.607Z,50.70
2019-04-10T14:11:59.770Z,49.80
2019-04-10T14:14:26.708Z,50.10
2019-04-10T14:16:55.486Z,49.60
2019-04-10T14:19:21.793Z,49.60
2019-04-10T14:21:49.178Z,48.70
2019-04-10T14:24:17.885Z,49.00
2019-04-10T14:26:52.113Z,50.00
2019-04-10T14:29:18.488Z,50.40
2019-04-10T14:31:49.457Z,50.40
2019-04-10T14:34:18.815Z,49.80
2019-04-10T14:36:46.347Z,49.80
2019-04-10T14:39:18.494Z,49.30
2019-04-10T14:41:42.406Z,50.00
2019-04-10T14:44:10.207Z,49.30
2019-04-10T14:46:38.008Z,49.50
2019-04-10T14:49:04.894Z,49.70
2019-04-10T14:51:32.469Z,49.40
2019-04-10T14:54:02.266Z,48.70
2019-04-10T14:56:28.574Z,49.50
2019-04-10T14:58:54.994Z,47.40
2019-04-10T15:01:21.973Z,48.60
2019-04-10T15:03:48.729Z,48.40
2019-04-10T15:06:15.507Z,47.30
2019-04-10T15:08:41.973Z,47.80
2019-04-10T15:11:08.640Z,47.80
2019-04-10T15:13:36.151Z,47.80
2019-04-10T15:16:02.971Z,47.70
2019-04-10T15:18:29.277Z,47.30
2019-04-10T15:20:56.595Z,46.80
2019-04-10T15:23:22.989Z,47.90
2019-04-10T15:25:49.573Z,46.70
2019-04-10T15:28:16.114Z,47.10
2019-04-10T15:30:42.500Z,47.80
2019-04-10T15:33:10.022Z,47.40
2019-04-10T15:35:36.700Z,47.50
2019-04-10T15:38:04.031Z,46.40
2019-04-10T15:40:30.495Z,47.70
2019-04-10T15:42:56.853Z,47.90
2019-04-10T15:45:23.879Z,47.20
2019-04-10T15:47:54.183Z,46.70
2019-04-10T15:50:18.909Z,46.40
2019-04-10T15:52:45.230Z,46.70
2019-04-10T15:55:11.667Z,45.90
2019-04-10T15:57:50.027Z,46.00
2019-04-10T16:00:08.538Z,46.20
2019-04-10T16:02:35.010Z,46.30
2019-04-10T16:05:01.560Z,45.80
2019-04-10T16:07:28.860Z,45.40
2019-04-10T16:09:57.966Z,45.70
2019-04-10T16:12:25.453Z,45.50
2019-04-10T16:14:54.918Z,45.20
2019-04-10T16:17:23.982Z,45.90
2019-04-10T16:20:04.273Z,45.70
2019-04-10T16:22:35.499Z,46.60
2019-04-10T16:25:05.344Z,45.80
2019-04-10T16:27:32.745Z,45.00
2019-04-10T16:30:02.078Z,45.10
2019-04-10T16:32:29.765Z,44.40
2019-04-10T16:34:56.828Z,45.20
2019-04-10T16:37:24.239Z,45.40
2019-04-10T16:39:59.541Z,45.10
2019-04-10T16:42:19.049Z,45.70
2019-04-10T16:44:45.683Z,44.30
2019-04-10T16:47:12.167Z,44.40
2019-04-10T16:49:39.197Z,44.90
2019-04-10T16:52:05.641Z,44.80
2019-04-10T16:54:31.926Z,45.20
2019-04-10T16:56:58.384Z,45.70
2019-04-10T16:59:25.572Z,45.30
2019-04-10T17:01:53.186Z,44.90
2019-04-10T17:04:19.871Z,44.90
2019-04-10T17:06:46.363Z,44.90
2019-04-10T17:09:14.711Z,45.90
2019-04-10T17:11:41.163Z,46.40
2019-04-10T17:14:07.487Z,47.20
2019-04-10T17:16:33.911Z,47.60
2019-04-10T17:19:00.392Z,47.70
2019-04-10T17:21:30.381Z,47.70
2019-04-10T17:23:55.016Z,48.00
2019-04-10T17:26:22.541Z,48.80
2019-04-10T17:28:50.313Z,49.40
2019-04-10T17:31:18.156Z,49.10
2019-04-10T17:33:44.518Z,49.70
2019-04-10T17:36:11.905Z,49.80
2019-04-10T17:38:38.802Z,49.80
2019-04-10T17:41:07.035Z,50.20
2019-04-10T17:43:34.951Z,50.60
2019-04-10T17:46:02.676Z,50.90
2019-04-10T17:48:30.563Z,51.30
2019-04-10T17:50:57.503Z,52.70
2019-04-10T17:53:26.632Z,52.30
2019-04-10T17:55:52.894Z,52.80
2019-04-10T17:58:21.280Z,53.10
2019-04-10T18:00:49.752Z,53.50
2019-04-10T18:03:18.389Z,53.60
2019-04-10T18:05:44.682Z,53.70
2019-04-10T18:08:12.392Z,54.00
2019-04-10T18:10:46.393Z,55.20
2019-04-10T18:13:08.388Z,54.80
2019-04-10T18:15:35.857Z,55.10
2019-04-10T18:18:03.231Z,55.50
2019-04-10T18:20:29.852Z,55.70
2019-04-10T18:22:56.168Z,56.20
2019-04-10T18:25:22.632Z,56.50
2019-04-10T18:27:49.118Z,57.10
2019-04-10T18:30:16.185Z,57.50
2019-04-10T18:32:42.592Z,57.50
2019-04-10T18:35:10.932Z,58.00
2019-04-10T18:37:37.700Z,58.40
2019-04-10T18:40:05.269Z,59.30
2019-04-10T18:42:32.836Z,59.30
2019-04-10T18:45:00.260Z,60.40
2019-04-10T18:47:27.090Z,61.00
2019-04-10T18:49:53.978Z,62.50
2019-04-10T18:52:21.278Z,62.70
2019-04-10T18:54:47.916Z,64.00
2019-04-10T18:57:14.339Z,64.00
2019-04-10T18:59:45.489Z,64.20
2019-04-10T19:02:28.424Z,65.90
2019-04-10T19:05:14.068Z,65.90
2019-04-10T19:07:40.623Z,66.80
2019-04-10T19:10:08.207Z,68.70
2019-04-10T19:12:34.970Z,69.60
2019-04-10T19:15:02.365Z,69.50
2019-04-10T19:17:30.917Z,70.10
2019-04-10T19:19:59.113Z,70.90
2019-04-10T19:22:26.299Z,71.00
2019-04-10T19:24:52.952Z,72.10
2019-04-10T19:27:20.077Z,73.40
2019-04-10T19:29:46.748Z,73.80
2019-04-10T19:32:16.243Z,73.40
2019-04-10T19:34:45.579Z,74.50
2019-04-10T19:37:12.949Z,75.10
2019-04-10T19:39:40.466Z,76.00
2019-04-10T19:42:07.096Z,76.50
2019-04-10T19:44:33.602Z,77.50
2019-04-10T19:47:01.967Z,77.10
2019-04-10T19:49:28.725Z,77.70
2019-04-10T19:51:58.057Z,79.90
2019-04-10T19:54:26.074Z,81.70
2019-04-10T19:56:53.052Z,82.90
2019-04-10T19:59:20.752Z,83.40
2019-04-10T20:01:48.470Z,84.90
2019-04-10T20:04:17.246Z,85.50
2019-04-10T20:06:44.735Z,85.40
2019-04-10T20:09:12.563Z,86.20
2019-04-10T20:11:44.932Z,87.10
2019-04-10T20:14:08.416Z,88.70
2019-04-10T20:16:35.355Z,90.10
2019-04-10T20:19:03.324Z,91.00
2019-04-10T20:21:30.135Z,90.70
2019-04-10T20:23:58.481Z,91.40
2019-04-10T20:26:25.648Z,91.50
2019-04-10T20:28:52.324Z,91.90
2019-04-10T20:34:00.411Z,93.80
2019-04-10T20:36:29.172Z,93.70
2019-04-10T20:38:56.785Z,94.80
2019-04-10T20:41:24.611Z,95.30
2019-04-10T20:43:51.306Z,94.80
2019-04-10T20:46:18.142Z,95.00
2019-04-10T20:48:44.929Z,94.60
2019-04-10T20:51:12.363Z,95.70
2019-04-10T20:53:40.190Z,95.60
2019-04-10T20:56:08.257Z,96.20
2019-04-10T20:58:34.605Z,96.30
2019-04-10T21:01:01.011Z,96.50
2019-04-10T21:03:27.454Z,97.00
2019-04-10T21:05:53.683Z,97.40
2019-04-10T21:08:20.260Z,97.20
2019-04-10T21:10:47.227Z,97.10
2019-04-10T21:13:14.950Z,97.50
2019-04-10T21:15:42.249Z,97.20
2019-04-10T21:18:08.583Z,97.40
2019-04-10T21:20:34.936Z,96.90
2019-04-10T21:23:01.452Z,97.20
2019-04-10T21:25:27.956Z,97.10
2019-04-10T21:27:55.094Z,96.90
2019-04-10T21:30:36.723Z,96.90
2019-04-10T21:33:18.192Z,96.80
2019-04-10T21:35:45.611Z,96.70
2019-04-10T21:38:13.066Z,96.90
2019-04-10T21:40:39.673Z,96.80
2019-04-10T21:43:06.143Z,97.20
2019-04-10T21:45:33.062Z,96.70
2019-04-10T21:47:59.978Z,97.10
2019-04-10T21:50:26.967Z,96.90
2019-04-10T21:52:53.414Z,96.80
2019-04-10T21:55:20.941Z,96.50
2019-04-10T21:57:48.847Z,97.00
2019-04-10T22:00:18.438Z,97.50
2019-04-10T22:02:46.219Z,97.40
2019-04-10T22:05:13.001Z,97.10
2019-04-10T22:07:48.245Z,97.40
2019-04-10T22:10:19.661Z,97.50
2019-04-10T22:12:47.718Z,98.10
2019-04-10T22:15:33.017Z,98.00
2019-04-10T22:17:59.441Z,98.10
2019-04-10T22:20:25.885Z,98.30
2019-04-10T22:22:53.281Z,98.20
2019-04-10T22:25:19.797Z,98.00
2019-04-10T22:27:46.064Z,98.30
2019-04-10T22:30:13.019Z,97.90
2019-04-10T22:32:40.696Z,98.10
2019-04-10T22:35:07.498Z,98.50
2019-04-10T22:37:33.857Z,98.00
2019-04-10T22:40:00.887Z,98.70
2019-04-10T22:42:38.815Z,99.40
2019-04-10T22:44:56.110Z,98.80
2019-04-10T22:47:23.220Z,98.30
2019-04-10T22:49:49.904Z,98.10
2019-04-10T22:52:16.244Z,97.80
2019-04-10T22:54:42.592Z,98.00
2019-04-10T22:57:08.972Z,98.20
2019-04-10T22:59:35.261Z,98.50
2019-04-10T23:02:07.387Z,98.80
2019-04-10T23:04:30.629Z,98.80
2019-04-10T23:06:57.672Z,98.50
2019-04-10T23:09:24.395Z,98.30
2019-04-10T23:11:51.971Z,97.90
2019-04-10T23:14:18.563Z,98.50
2019-04-10T23:16:44.935Z,98.50
2019-04-10T23:19:11.987Z,98.40
2019-04-10T23:21:38.719Z,98.00
2019-04-10T23:24:05.555Z,97.60
2019-04-10T23:26:31.740Z,97.20
2019-04-10T23:28:58.043Z,97.10
2019-04-10T23:31:24.380Z,96.90
2019-04-10T23:33:50.644Z,96.60
2019-04-10T23:36:18.060Z,96.20
2019-04-10T23:38:45.801Z,95.80
2019-04-10T23:41:12.245Z,95.60
2019-04-10T23:43:39.800Z,95.60
2019-04-10T23:46:06.306Z,96.20
2019-04-10T23:48:32.910Z,96.50
2019-04-10T23:50:59.275Z,96.80
2019-04-10T23:53:26.598Z,96.80
2019-04-10T23:55:52.988Z,97.10
2019-04-10T23:58:19.946Z,97.00
